TimeGMT,TemperatureF,Dew PointF,Humidity,Sea Level PressureIn,VisibilityMPH,Wind Direction,Wind SpeedMPH,Gust SpeedMPH,PrecipitationIn,Events,Conditions,WindDirDegrees,DateUTC
12:00 AM,41,39,89,29.20,22,ESE,9.2,,,Rain,Rain,120,2014-01-29 00:00:00
12:20 AM,41.0,39.2,93,29.21,6.2,ESE,10.4,-,N/A,,Scattered Clouds,120,2014-01-29 00:20:00
12:50 AM,41.0,39.2,93,29.21,6.2,ESE,9.2,-,N/A,Rain,Light Rain,120,2014-01-29 00:50:00
1:00 AM,41,39,90,29.21,18,ESE,10.4,,,Rain,Light Rain Showers,110,2014-01-29 01:00:00
1:20 AM,42.8,39.2,87,29.21,6.2,SE,9.2,-,N/A,Rain,Light Rain,130,2014-01-29 01:20:00
1:50 AM,41.0,39.2,93,29.21,6.2,East,8.1,-,N/A,,Mostly Cloudy,100,2014-01-29 01:50:00
2:00 AM,41,39,90,29.23,19,ESE,8.1,,,Rain,Rain,110,2014-01-29 02:00:00
2:20 AM,41.0,39.2,93,29.24,6.2,ESE,8.1,-,N/A,,Mostly Cloudy,110,2014-01-29 02:20:00
2:50 AM,42.8,39.2,87,29.24,6.2,East,6.9,-,N/A,,Mostly Cloudy,100,2014-01-29 02:50:00
3:00 AM,42,39,86,29.24,19,East,8.1,,,,Mostly Cloudy,100,2014-01-29 03:00:00
3:20 AM,42.8,39.2,87,29.24,6.2,East,8.1,-,N/A,,Mostly Cloudy,100,2014-01-29 03:20:00
3:50 AM,41.0,39.2,93,29.24,6.2,East,8.1,-,N/A,,Mostly Cloudy,90,2014-01-29 03:50:00
4:00 AM,42,39,87,29.25,22,East,8.1,,,,Scattered Clouds,90,2014-01-29 04:00:00
4:20 AM,41.0,39.2,93,29.24,6.2,East,6.9,-,N/A,Rain,Light Rain,100,2014-01-29 04:20:00
4:50 AM,41.0,39.2,93,29.27,5.6,ESE,9.2,-,N/A,Rain,Light Rain,110,2014-01-29 04:50:00
5:00 AM,41,40,93,29.26,5,East,10.4,,,Rain,Light Rain Showers,100,2014-01-29 05:00:00
5:20 AM,41.0,39.2,93,29.27,5.6,East,8.1,-,N/A,Rain,Light Rain,100,2014-01-29 05:20:00
5:50 AM,41.0,39.2,93,29.27,6.2,East,10.4,-,N/A,Rain,Light Rain,90,2014-01-29 05:50:00
6:00 AM,41,39,89,29.27,19,East,11.5,,,Rain,Rain,90,2014-01-29 06:00:00
6:20 AM,41.0,39.2,93,29.27,6.2,East,11.5,-,N/A,,Mostly Cloudy,100,2014-01-29 06:20:00
6:50 AM,41.0,39.2,93,29.27,6.2,East,10.4,-,N/A,,Mostly Cloudy,90,2014-01-29 06:50:00
7:00 AM,41,38,86,29.28,22,East,11.5,,,,Overcast,90,2014-01-29 07:00:00
7:20 AM,41.0,37.4,87,29.27,6.2,East,9.2,-,N/A,,Mostly Cloudy,100,2014-01-29 07:20:00
7:50 AM,41.0,37.4,87,29.30,6.2,East,10.4,-,N/A,,Mostly Cloudy,90,2014-01-29 07:50:00
8:00 AM,41,38,85,29.31,22,East,10.4,,,Rain,Rain,90,2014-01-29 08:00:00
8:20 AM,41.0,39.2,93,29.30,6.2,East,9.2,-,N/A,,Mostly Cloudy,90,2014-01-29 08:20:00
8:50 AM,41.0,37.4,87,29.33,6.2,East,10.4,-,N/A,Rain,Light Rain,90,2014-01-29 08:50:00
9:00 AM,40,38,88,29.33,9,East,10.4,,,Rain,Light Rain Showers,90,2014-01-29 09:00:00
9:20 AM,41.0,37.4,87,29.33,6.2,East,11.5,-,N/A,Rain,Light Rain,80,2014-01-29 09:20:00
9:50 AM,41.0,37.4,87,29.33,6.2,East,9.2,-,N/A,Rain,Light Rain,90,2014-01-29 09:50:00
10:00 AM,40,37,87,29.35,7,East,9.2,,,Rain,Light Rain,80,2014-01-29 10:00:00
10:20 AM,41.0,37.4,87,29.36,6.2,East,6.9,-,N/A,Rain,Light Rain,80,2014-01-29 10:20:00
10:50 AM,39.2,37.4,93,29.36,6.2,East,11.5,-,N/A,Rain,Light Rain,100,2014-01-29 10:50:00
11:00 AM,40,37,86,29.36,6,East,12.7,,,Rain,Light Rain,90,2014-01-29 11:00:00
11:20 AM,39.2,37.4,93,29.36,6.2,East,12.7,-,N/A,Rain,Light Rain,90,2014-01-29 11:20:00
11:50 AM,39.2,37.4,93,29.36,6.2,East,10.4,-,N/A,Rain,Light Rain,90,2014-01-29 11:50:00
12:00 PM,39,37,89,29.37,4,East,11.5,,,Rain,Light Rain,80,2014-01-29 12:00:00
12:20 PM,39.2,37.4,93,29.36,6.2,East,12.7,-,N/A,Rain,Light Rain,90,2014-01-29 12:20:00
12:50 PM,39.2,37.4,93,29.36,6.2,East,10.4,-,N/A,Rain,Light Rain,100,2014-01-29 12:50:00
1:00 PM,39,37,88,29.37,6,East,9.2,,,Rain,Light Rain,90,2014-01-29 13:00:00
1:20 PM,39.2,37.4,93,29.36,6.2,East,10.4,-,N/A,Rain,Light Rain,90,2014-01-29 13:20:00
1:50 PM,39.2,37.4,93,29.36,5.6,East,10.4,-,N/A,Rain,Light Rain,90,2014-01-29 13:50:00
2:00 PM,39,36,87,29.38,6,East,10.4,,,Rain,Light Rain,80,2014-01-29 14:00:00
2:20 PM,39.2,37.4,93,29.36,5.0,East,10.4,-,N/A,Rain,Rain,80,2014-01-29 14:20:00
2:50 PM,39.2,37.4,93,29.39,5.0,ENE,8.1,-,N/A,Rain,Rain,70,2014-01-29 14:50:00
3:00 PM,40,37,87,29.38,4,ENE,9.2,,,Rain,Rain,60,2014-01-29 15:00:00
3:20 PM,39.2,37.4,93,29.39,5.0,East,15.0,-,N/A,Rain,Light Rain,90,2014-01-29 15:20:00
3:50 PM,39.2,35.6,87,29.39,5.0,East,11.5,-,N/A,Rain,Light Rain,90,2014-01-29 15:50:00
4:00 PM,38,36,91,29.41,5,East,11.5,,,Rain,Light Rain,90,2014-01-29 16:00:00
4:20 PM,39.2,37.4,93,29.42,4.3,East,10.4,-,N/A,Rain,Rain,90,2014-01-29 16:20:00
4:50 PM,39.2,35.6,87,29.42,3.7,East,12.7,-,N/A,Rain,Rain,100,2014-01-29 16:50:00
5:00 PM,39,36,86,29.42,4,East,12.7,,,Rain,Light Rain,90,2014-01-29 17:00:00
5:20 PM,39.2,35.6,87,29.42,4.3,East,11.5,-,N/A,Rain,Rain,90,2014-01-29 17:20:00
5:50 PM,39.2,37.4,93,29.44,4.3,East,11.5,-,N/A,Rain,Rain,90,2014-01-29 17:50:00
6:00 PM,39,36,87,29.44,4,East,11.5,,,Rain,Light Rain,80,2014-01-29 18:00:00
6:20 PM,39.2,37.4,93,29.44,4.3,East,10.4,-,N/A,Rain,Light Rain,90,2014-01-29 18:20:00
6:50 PM,39.2,37.4,93,29.44,5.0,East,9.2,-,N/A,Rain,Light Rain,90,2014-01-29 18:50:00
7:00 PM,39,37,88,29.46,6,East,9.2,,,Rain,Light Rain,80,2014-01-29 19:00:00
7:20 PM,39.2,37.4,93,29.47,3.7,East,6.9,-,N/A,Rain,Light Rain,90,2014-01-29 19:20:00
7:50 PM,39.2,37.4,93,29.47,4.3,East,8.1,-,N/A,Rain,Light Rain,80,2014-01-29 19:50:00
8:00 PM,40,37,85,29.48,4,East,8.1,,,Rain,Rain,80,2014-01-29 20:00:00
8:20 PM,39.2,37.4,93,29.47,3.7,ENE,5.8,-,N/A,Rain,Light Rain,70,2014-01-29 20:20:00
8:50 PM,39.2,37.4,93,29.50,3.7,East,9.2,-,N/A,Rain,Light Rain,90,2014-01-29 20:50:00
9:00 PM,39,36,85,29.50,4,East,9.2,,,Rain,Light Rain Showers,80,2014-01-29 21:00:00
9:20 PM,39.2,35.6,87,29.50,3.7,East,6.9,-,N/A,Rain,Rain,90,2014-01-29 21:20:00
9:50 PM,39.2,35.6,87,29.50,-9999.0,ENE,3.5,-,N/A,Rain,Rain,70,2014-01-29 21:50:00
10:00 PM,39,37,90,29.51,2,ENE,3.5,,,Rain,Light Rain,60,2014-01-29 22:00:00
10:20 PM,39.2,37.4,93,29.50,3.7,Variable,2.3,-,N/A,Rain,Rain,0,2014-01-29 22:20:00
10:50 PM,39.2,37.4,93,29.50,3.7,ENE,4.6,-,N/A,Rain,Light Rain,60,2014-01-29 22:50:00
11:00 PM,39,37,91,29.52,4,NE,4.6,,,Rain,Light Rain,50,2014-01-29 23:00:00
11:20 PM,39.2,37.4,93,29.50,3.7,ENE,4.6,-,N/A,Rain,Light Rain,60,2014-01-29 23:20:00
11:50 PM,39.2,37.4,93,29.50,3.7,ENE,9.2,-,N/A,Rain,Light Rain,60,2014-01-29 23:50:00